Causey, New Mexico
Current Conditions -  °F | °C
As of 1:58 PM on Tuesday 21 Oct 2014 (Local Time) from KCVS Reporting Station
Clear Clear  
Wind Chill: 73°   Ceiling: Unl
Heat Index: 73°   Visibility: 10mi
Dew Point: 48°   Wind: 13mph
Humidity: 42%   Direction: 170°S
Pressure: 30.09"   Gusts: 22mph
Location:  33.88°N, 103.13°W
Report Text: KCVS 211958Z AUTO 17011G19KT 10SM CLR 23/09 A3009 RMK AO2 SLP145 T02260091 $
Loading
Personal Weather Stations






























Interactive Weather Map
Tropical Storm Tracking
New forecast layout! Learn more

10-Day Weather Forecast

Advertisements
Track Severe Weather on mobile